KHUM/HUM METAR and TAF weather

Enter ICAO airport designator
Station Type Date Time Source
KHUM METAR 2020/09/19 06:35 UTC NOAA

KHUM 190635Z AUTO 05007KT 10SM -DZ SCT070 OVC090 22/21 A2995 RMK AO2 P0001 T02210208


Station Type Date Time Source
KHUM Decoded METAR 2020/09/19 06:35 UTC NOAA

Houma-Terrebonne, LA, United States (KHUM) 29-34N 090-40W
Sep 19, 2020 - 02:35 AM EDT / 2020.09.19 0635 UTC
Wind: from the NE (050 degrees) at 8 MPH (7 KT):0
Visibility: 10 mile(s):0
Sky conditions: overcast
Weather: light drizzle
Precipitation last hour: 0.01 inches
Temperature: 71.8 F (22.1 C)
Dew Point: 69.4 F (20.8 C)
Relative Humidity: 92%
Pressure (altimeter): 29.95 in. Hg (1014 hPa)
ob: KHUM 190635Z AUTO 05007KT 10SM -DZ SCT070 OVC090 22/21 A2995 RMK AO2 P0001 T02210208
cycle: 6

Station Type Date Time Source
KHUM TAF 2020/09/19 06:22 UTC NOAA

TAF KHUM 190520Z 1906/2006 04006KT P6SM -DZ OVC090
FM191200 04009KT P6SM VCSH OVC020
FM192000 06013KT 3SM BR VCSH OVC015
FM200000 06011KT P6SM OVC080

Example: see airport list